sensor_id;sensor_type;location;lat;lon;timestamp;pressure;altitude;pressure_sealevel;temperature;humidity
34925;BME280;21130;51.728;8.748;2023-08-24T00:01:40;100670.75;;;14.50;100.00
34925;BME280;21130;51.728;8.748;2023-08-24T00:04:07;100673.81;;;14.48;100.00
34925;BME280;21130;51.728;8.748;2023-08-24T00:06:37;100677.97;;;14.45;100.00
34925;BME280;21130;51.728;8.748;2023-08-24T00:09:03;100679.94;;;14.45;100.00
34925;BME280;21130;51.728;8.748;2023-08-24T00:11:30;100671.81;;;14.43;100.00
34925;BME280;21130;51.728;8.748;2023-08-24T00:13:57;100680.19;;;14.43;100.00
34925;BME280;21130;51.728;8.748;2023-08-24T00:16:23;100677.13;;;14.45;100.00
34925;BME280;21130;51.728;8.748;2023-08-24T00:18:50;100671.25;;;14.46;100.00
34925;BME280;21130;51.728;8.748;2023-08-24T00:21:16;100678.53;;;14.47;100.00
34925;BME280;21130;51.728;8.748;2023-08-24T00:23:45;100680.22;;;14.48;100.00
34925;BME280;21130;51.728;8.748;2023-08-24T00:26:12;100670.75;;;14.50;100.00
34925;BME280;21130;51.728;8.748;2023-08-24T00:28:38;100675.47;;;14.49;100.00
34925;BME280;21130;51.728;8.748;2023-08-24T00:31:05;100676.66;;;14.53;100.00
34925;BME280;21130;51.728;8.748;2023-08-24T00:33:32;100664.63;;;14.53;100.00
34925;BME280;21130;51.728;8.748;2023-08-24T00:35:59;100663.78;;;14.52;100.00
34925;BME280;21130;51.728;8.748;2023-08-24T00:38:27;100653.13;;;14.49;100.00
34925;BME280;21130;51.728;8.748;2023-08-24T00:40:55;100657.63;;;14.50;100.00
34925;BME280;21130;51.728;8.748;2023-08-24T00:43:21;100650.34;;;14.49;100.00
34925;BME280;21130;51.728;8.748;2023-08-24T00:45:49;100647.84;;;14.47;100.00
34925;BME280;21130;51.728;8.748;2023-08-24T00:48:16;100643.88;;;14.43;100.00
34925;BME280;21130;51.728;8.748;2023-08-24T00:50:42;100652.50;;;14.42;100.00
34925;BME280;21130;51.728;8.748;2023-08-24T00:53:10;100651.97;;;14.40;100.00
34925;BME280;21130;51.728;8.748;2023-08-24T00:55:36;100652.78;;;14.40;100.00
34925;BME280;21130;51.728;8.748;2023-08-24T00:58:05;100644.41;;;14.40;100.00
34925;BME280;21130;51.728;8.748;2023-08-24T01:00:32;100663.38;;;14.38;100.00
34925;BME280;21130;51.728;8.748;2023-08-24T01:02:58;100657.50;;;14.35;100.00
34925;BME280;21130;51.728;8.748;2023-08-24T01:05:25;100651.00;;;14.29;100.00
34925;BME280;21130;51.728;8.748;2023-08-24T01:07:51;100648.75;;;14.26;100.00
34925;BME280;21130;51.728;8.748;2023-08-24T01:10:18;100654.56;;;14.19;100.00
34925;BME280;21130;51.728;8.748;2023-08-24T01:12:57;100649.50;;;14.16;100.00
34925;BME280;21130;51.728;8.748;2023-08-24T01:15:31;100654.50;;;14.14;100.00
34925;BME280;21130;51.728;8.748;2023-08-24T01:18:03;100646.66;;;14.11;100.00
34925;BME280;21130;51.728;8.748;2023-08-24T01:20:31;100646.97;;;14.10;100.00
34925;BME280;21130;51.728;8.748;2023-08-24T01:23:07;100643.28;;;14.09;100.00
34925;BME280;21130;51.728;8.748;2023-08-24T01:25:38;100642.16;;;14.05;100.00
34925;BME280;21130;51.728;8.748;2023-08-24T01:28:09;100653.00;;;14.01;100.00
34925;BME280;21130;51.728;8.748;2023-08-24T01:30:39;100651.56;;;13.99;100.00
34925;BME280;21130;51.728;8.748;2023-08-24T01:33:05;100646.00;;;13.99;100.00
34925;BME280;21130;51.728;8.748;2023-08-24T01:35:37;100636.19;;;13.96;100.00
34925;BME280;21130;51.728;8.748;2023-08-24T01:38:03;100628.94;;;13.95;100.00
34925;BME280;21130;51.728;8.748;2023-08-24T01:40:38;100630.03;;;13.94;100.00
34925;BME280;21130;51.728;8.748;2023-08-24T01:43:09;100629.19;;;13.94;100.00
34925;BME280;21130;51.728;8.748;2023-08-24T01:45:39;100627.78;;;13.91;100.00
34925;BME280;21130;51.728;8.748;2023-08-24T01:48:09;100627.78;;;13.91;100.00
34925;BME280;21130;51.728;8.748;2023-08-24T01:50:36;100626.13;;;13.90;100.00
34925;BME280;21130;51.728;8.748;2023-08-24T01:53:03;100620.25;;;13.92;100.00
34925;BME280;21130;51.728;8.748;2023-08-24T01:55:30;100622.78;;;13.93;100.00
34925;BME280;21130;51.728;8.748;2023-08-24T01:57:56;100624.75;;;13.93;100.00
34925;BME280;21130;51.728;8.748;2023-08-24T02:00:24;100616.38;;;13.93;100.00
34925;BME280;21130;51.728;8.748;2023-08-24T02:02:50;100621.66;;;13.94;100.00
34925;BME280;21130;51.728;8.748;2023-08-24T02:05:17;100608.59;;;13.95;100.00
34925;BME280;21130;51.728;8.748;2023-08-24T02:07:43;100611.38;;;13.95;100.00
34925;BME280;21130;51.728;8.748;2023-08-24T02:10:10;100612.16;;;13.90;100.00
34925;BME280;21130;51.728;8.748;2023-08-24T02:12:37;100602.38;;;13.88;100.00
34925;BME280;21130;51.728;8.748;2023-08-24T02:15:04;100615.75;;;13.86;100.00
34925;BME280;21130;51.728;8.748;2023-08-24T02:17:32;100612.66;;;13.82;100.00
34925;BME280;21130;51.728;8.748;2023-08-24T02:19:58;100608.69;;;13.78;100.00
34925;BME280;21130;51.728;8.748;2023-08-24T02:22:25;100609.22;;;13.75;100.00
34925;BME280;21130;51.728;8.748;2023-08-24T02:24:53;100600.03;;;13.74;100.00
34925;BME280;21130;51.728;8.748;2023-08-24T02:27:20;100593.56;;;13.74;100.00
34925;BME280;21130;51.728;8.748;2023-08-24T02:30:07;100598.31;;;13.73;100.00
34925;BME280;21130;51.728;8.748;2023-08-24T02:32:55;100599.09;;;13.69;100.00
34925;BME280;21130;51.728;8.748;2023-08-24T02:35:39;100595.22;;;13.70;100.00
34925;BME280;21130;51.728;8.748;2023-08-24T02:38:24;100595.22;;;13.70;100.00
34925;BME280;21130;51.728;8.748;2023-08-24T02:41:00;100598.03;;;13.70;100.00
34925;BME280;21130;51.728;8.748;2023-08-24T02:43:27;100597.44;;;13.68;100.00
34925;BME280;21130;51.728;8.748;2023-08-24T02:45:54;100596.59;;;13.67;100.00
34925;BME280;21130;51.728;8.748;2023-08-24T02:48:22;100590.75;;;13.69;100.00
34925;BME280;21130;51.728;8.748;2023-08-24T02:50:48;100600.75;;;13.65;100.00
34925;BME280;21130;51.728;8.748;2023-08-24T02:53:15;100589.03;;;13.63;100.00
34925;BME280;21130;51.728;8.748;2023-08-24T02:55:41;100581.44;;;13.58;100.00
34925;BME280;21130;51.728;8.748;2023-08-24T02:58:07;100583.38;;;13.57;100.00
34925;BME280;21130;51.728;8.748;2023-08-24T03:00:34;100567.19;;;13.54;100.00
34925;BME280;21130;51.728;8.748;2023-08-24T03:03:06;100577.47;;;13.54;100.00
34925;BME280;21130;51.728;8.748;2023-08-24T03:05:34;100583.34;;;13.52;100.00
34925;BME280;21130;51.728;8.748;2023-08-24T03:08:00;100586.66;;;13.49;100.00
34925;BME280;21130;51.728;8.748;2023-08-24T03:10:29;100585.53;;;13.50;100.00
34925;BME280;21130;51.728;8.748;2023-08-24T03:12:56;100577.97;;;13.46;100.00
34925;BME280;21130;51.728;8.748;2023-08-24T03:15:22;100564.81;;;13.41;100.00
34925;BME280;21130;51.728;8.748;2023-08-24T03:17:48;100575.41;;;13.44;100.00
34925;BME280;21130;51.728;8.748;2023-08-24T03:20:15;100572.31;;;13.40;100.00
34925;BME280;21130;51.728;8.748;2023-08-24T03:22:43;100588.00;;;13.47;100.00
34925;BME280;21130;51.728;8.748;2023-08-24T03:25:09;100579.06;;;13.45;100.00
34925;BME280;21130;51.728;8.748;2023-08-24T03:27:37;100587.44;;;13.45;100.00
34925;BME280;21130;51.728;8.748;2023-08-24T03:30:05;100599.47;;;13.50;100.00
34925;BME280;21130;51.728;8.748;2023-08-24T03:32:32;100598.91;;;13.48;100.00
34925;BME280;21130;51.728;8.748;2023-08-24T03:34:59;100602.22;;;13.45;100.00
34925;BME280;21130;51.728;8.748;2023-08-24T03:37:26;100599.63;;;13.38;100.00
34925;BME280;21130;51.728;8.748;2023-08-24T03:39:53;100602.88;;;13.30;100.00
34925;BME280;21130;51.728;8.748;2023-08-24T03:42:20;100595.88;;;13.28;100.00
34925;BME280;21130;51.728;8.748;2023-08-24T03:44:46;100601.38;;;13.23;100.00
34925;BME280;21130;51.728;8.748;2023-08-24T03:47:13;100600.25;;;13.24;100.00
34925;BME280;21130;51.728;8.748;2023-08-24T03:49:41;100609.97;;;13.21;100.00
34925;BME280;21130;51.728;8.748;2023-08-24T03:52:08;100598.53;;;13.17;100.00
34925;BME280;21130;51.728;8.748;2023-08-24T03:54:34;100597.09;;;13.15;100.00
34925;BME280;21130;51.728;8.748;2023-08-24T03:57:02;100603.44;;;13.10;100.00
34925;BME280;21130;51.728;8.748;2023-08-24T03:59:29;100604.56;;;13.09;100.00
34925;BME280;21130;51.728;8.748;2023-08-24T04:01:55;100607.84;;;13.06;100.00
34925;BME280;21130;51.728;8.748;2023-08-24T04:04:24;100613.16;;;13.08;100.00
34925;BME280;21130;51.728;8.748;2023-08-24T04:06:51;100611.16;;;13.03;100.00
34925;BME280;21130;51.728;8.748;2023-08-24T04:09:18;100618.66;;;13.03;100.00
34925;BME280;21130;51.728;8.748;2023-08-24T04:11:44;100619.50;;;13.03;100.00
34925;BME280;21130;51.728;8.748;2023-08-24T04:14:12;100611.22;;;13.08;100.00
34925;BME280;21130;51.728;8.748;2023-08-24T04:16:39;100601.78;;;13.09;100.00
34925;BME280;21130;51.728;8.748;2023-08-24T04:19:07;100593.41;;;13.09;100.00
34925;BME280;21130;51.728;8.748;2023-08-24T04:21:33;100589.56;;;13.15;100.00
34925;BME280;21130;51.728;8.748;2023-08-24T04:24:00;100589.88;;;13.19;100.00
34925;BME280;21130;51.728;8.748;2023-08-24T04:26:26;100585.47;;;13.23;100.00
34925;BME280;21130;51.728;8.748;2023-08-24T04:28:53;100593.69;;;13.30;100.00
34925;BME280;21130;51.728;8.748;2023-08-24T04:31:21;100607.41;;;13.36;100.00
34925;BME280;21130;51.728;8.748;2023-08-24T04:33:47;100608.31;;;13.42;100.00
34925;BME280;21130;51.728;8.748;2023-08-24T04:36:13;100616.47;;;13.49;100.00
34925;BME280;21130;51.728;8.748;2023-08-24T04:38:40;100615.38;;;13.50;100.00
34925;BME280;21130;51.728;8.748;2023-08-24T04:41:08;100620.19;;;13.54;100.00
34925;BME280;21130;51.728;8.748;2023-08-24T04:43:37;100600.38;;;13.56;100.00
34925;BME280;21130;51.728;8.748;2023-08-24T04:46:04;100611.34;;;13.63;100.00
34925;BME280;21130;51.728;8.748;2023-08-24T04:48:32;100606.38;;;13.70;100.00
34925;BME280;21130;51.728;8.748;2023-08-24T04:50:59;100617.91;;;13.78;100.00
34925;BME280;21130;51.728;8.748;2023-08-24T04:53:26;100626.13;;;13.90;100.00
34925;BME280;21130;51.728;8.748;2023-08-24T04:55:53;100627.31;;;13.99;100.00
34925;BME280;21130;51.728;8.748;2023-08-24T04:58:19;100626.31;;;14.11;100.00
34925;BME280;21130;51.728;8.748;2023-08-24T05:00:46;100628.63;;;14.24;100.00
34925;BME280;21130;51.728;8.748;2023-08-24T05:03:13;100634.31;;;14.34;100.00
34925;BME280;21130;51.728;8.748;2023-08-24T05:05:41;100638.53;;;14.42;100.00
34925;BME280;21130;51.728;8.748;2023-08-24T05:08:08;100643.97;;;14.54;100.00
34925;BME280;21130;51.728;8.748;2023-08-24T05:10:36;100642.06;;;14.59;100.00
34925;BME280;21130;51.728;8.748;2023-08-24T05:13:03;100641.84;;;14.66;100.00
34925;BME280;21130;51.728;8.748;2023-08-24T05:15:29;100643.00;;;14.70;100.00
34925;BME280;21130;51.728;8.748;2023-08-24T05:17:56;100640.75;;;14.72;100.00
34925;BME280;21130;51.728;8.748;2023-08-24T05:20:24;100628.50;;;14.78;100.00
34925;BME280;21130;51.728;8.748;2023-08-24T05:22:52;100632.16;;;14.84;100.00
34925;BME280;21130;51.728;8.748;2023-08-24T05:25:20;100622.16;;;14.88;100.00
34925;BME280;21130;51.728;8.748;2023-08-24T05:27:46;100623.81;;;14.89;100.00
34925;BME280;21130;51.728;8.748;2023-08-24T05:30:13;100611.84;;;14.94;100.00
34925;BME280;21130;51.728;8.748;2023-08-24T05:32:39;100602.63;;;14.98;100.00
34925;BME280;21130;51.728;8.748;2023-08-24T05:35:07;100614.38;;;15.00;100.00
34925;BME280;21130;51.728;8.748;2023-08-24T05:37:34;100613.00;;;15.03;100.00
34925;BME280;21130;51.728;8.748;2023-08-24T05:40:22;100609.09;;;15.04;100.00
34925;BME280;21130;51.728;8.748;2023-08-24T05:42:49;100610.22;;;15.03;100.00
34925;BME280;21130;51.728;8.748;2023-08-24T05:45:15;100615.81;;;15.08;100.00
34925;BME280;21130;51.728;8.748;2023-08-24T05:47:42;100614.44;;;15.10;100.00
34925;BME280;21130;51.728;8.748;2023-08-24T05:50:08;100620.06;;;15.16;100.00
34925;BME280;21130;51.728;8.748;2023-08-24T05:52:36;100618.13;;;15.21;100.00
34925;BME280;21130;51.728;8.748;2023-08-24T05:55:03;100614.25;;;15.27;100.00
34925;BME280;21130;51.728;8.748;2023-08-24T05:57:31;100614.28;;;15.38;100.00
34925;BME280;21130;51.728;8.748;2023-08-24T05:59:58;100609.78;;;15.42;100.00
34925;BME280;21130;51.728;8.748;2023-08-24T06:02:24;100618.47;;;15.40;100.00
34925;BME280;21130;51.728;8.748;2023-08-24T06:04:51;100612.59;;;15.42;100.00
34925;BME280;21130;51.728;8.748;2023-08-24T06:07:17;100615.13;;;15.43;100.00
34925;BME280;21130;51.728;8.748;2023-08-24T06:09:44;100616.53;;;15.46;100.00
34925;BME280;21130;51.728;8.748;2023-08-24T06:12:10;100606.75;;;15.48;100.00
34925;BME280;21130;51.728;8.748;2023-08-24T06:14:38;100599.75;;;15.51;100.00
34925;BME280;21130;51.728;8.748;2023-08-24T06:17:04;100596.41;;;15.54;100.00
34925;BME280;21130;51.728;8.748;2023-08-24T06:19:31;100589.16;;;15.58;100.00
34925;BME280;21130;51.728;8.748;2023-08-24T06:21:57;100581.03;;;15.62;100.00
34925;BME280;21130;51.728;8.748;2023-08-24T06:24:24;100576.56;;;15.66;100.00
34925;BME280;21130;51.728;8.748;2023-08-24T06:26:50;100564.28;;;15.72;100.00
34925;BME280;21130;51.728;8.748;2023-08-24T06:29:17;100544.19;;;15.80;100.00
34925;BME280;21130;51.728;8.748;2023-08-24T06:31:45;100524.28;;;15.92;100.00
34925;BME280;21130;51.728;8.748;2023-08-24T06:34:11;100516.44;;;16.09;100.00
34925;BME280;21130;51.728;8.748;2023-08-24T06:36:38;100508.84;;;16.20;100.00
34925;BME280;21130;51.728;8.748;2023-08-24T06:39:05;100514.16;;;16.37;100.00
34925;BME280;21130;51.728;8.748;2023-08-24T06:41:33;100505.72;;;16.47;100.00
34925;BME280;21130;51.728;8.748;2023-08-24T06:43:59;100492.25;;;16.59;100.00
34925;BME280;21130;51.728;8.748;2023-08-24T06:46:47;100491.09;;;16.71;100.00
34925;BME280;21130;51.728;8.748;2023-08-24T06:52:23;100471.91;;;17.03;100.00
34925;BME280;21130;51.728;8.748;2023-08-24T06:54:49;100464.53;;;17.13;100.00
34925;BME280;21130;51.728;8.748;2023-08-24T06:57:18;100466.16;;;17.24;100.00
34925;BME280;21130;51.728;8.748;2023-08-24T06:59:45;100468.34;;;17.32;100.00
34925;BME280;21130;51.728;8.748;2023-08-24T07:02:13;100466.03;;;17.44;100.00
34925;BME280;21130;51.728;8.748;2023-08-24T07:04:40;100470.69;;;17.59;100.00
34925;BME280;21130;51.728;8.748;2023-08-24T07:07:06;100457.06;;;17.77;100.00
34925;BME280;21130;51.728;8.748;2023-08-24T07:09:33;100465.16;;;17.88;100.00
34925;BME280;21130;51.728;8.748;2023-08-24T07:12:00;100455.44;;;18.05;100.00
34925;BME280;21130;51.728;8.748;2023-08-24T07:14:27;100450.72;;;18.24;100.00
34925;BME280;21130;51.728;8.748;2023-08-24T07:16:53;100456.41;;;18.43;100.00
34925;BME280;21130;51.728;8.748;2023-08-24T07:19:21;100454.00;;;18.55;100.00
34925;BME280;21130;51.728;8.748;2023-08-24T07:21:48;100447.34;;;18.75;100.00
34925;BME280;21130;51.728;8.748;2023-08-24T07:24:14;100439.00;;;18.89;100.00
34925;BME280;21130;51.728;8.748;2023-08-24T07:26:41;100430.81;;;19.12;100.00
34925;BME280;21130;51.728;8.748;2023-08-24T07:29:08;100437.03;;;19.28;100.00
34925;BME280;21130;51.728;8.748;2023-08-24T07:31:34;100427.13;;;19.49;100.00
34925;BME280;21130;51.728;8.748;2023-08-24T07:34:02;100430.81;;;19.63;100.00
34925;BME280;21130;51.728;8.748;2023-08-24T07:36:30;100415.84;;;19.68;100.00
34925;BME280;21130;51.728;8.748;2023-08-24T07:38:56;100411.63;;;19.65;100.00
34925;BME280;21130;51.728;8.748;2023-08-24T07:41:23;100423.81;;;19.80;100.00
34925;BME280;21130;51.728;8.748;2023-08-24T07:43:49;100418.94;;;19.85;100.00
34925;BME280;21130;51.728;8.748;2023-08-24T07:46:16;100414.13;;;19.86;100.00
34925;BME280;21130;51.728;8.748;2023-08-24T07:48:42;100412.28;;;19.95;100.00
34925;BME280;21130;51.728;8.748;2023-08-24T07:51:09;100420.19;;;19.93;100.00
34925;BME280;21130;51.728;8.748;2023-08-24T07:53:36;100424.47;;;19.91;100.00
34925;BME280;21130;51.728;8.748;2023-08-24T07:56:03;100429.13;;;20.14;100.00
34925;BME280;21130;51.728;8.748;2023-08-24T07:58:30;100424.75;;;20.49;100.00
34925;BME280;21130;51.728;8.748;2023-08-24T08:00:58;100431.09;;;20.97;100.00
34925;BME280;21130;51.728;8.748;2023-08-24T08:03:25;100427.31;;;21.38;100.00
34925;BME280;21130;51.728;8.748;2023-08-24T08:05:51;100415.00;;;21.78;100.00
34925;BME280;21130;51.728;8.748;2023-08-24T08:08:18;100419.34;;;22.07;100.00
34925;BME280;21130;51.728;8.748;2023-08-24T08:10:45;100423.38;;;22.46;100.00
34925;BME280;21130;51.728;8.748;2023-08-24T08:13:12;100424.81;;;22.75;100.00
34925;BME280;21130;51.728;8.748;2023-08-24T08:15:38;100430.22;;;23.02;100.00
34925;BME280;21130;51.728;8.748;2023-08-24T08:18:05;100441.69;;;23.15;100.00
34925;BME280;21130;51.728;8.748;2023-08-24T08:20:32;100430.72;;;23.39;100.00
34925;BME280;21130;51.728;8.748;2023-08-24T08:22:58;100436.03;;;23.67;100.00
34925;BME280;21130;51.728;8.748;2023-08-24T08:25:25;100435.19;;;24.01;100.00
34925;BME280;21130;51.728;8.748;2023-08-24T08:27:52;100433.78;;;24.25;100.00
34925;BME280;21130;51.728;8.748;2023-08-24T08:30:19;100430.53;;;24.44;100.00
34925;BME280;21130;51.728;8.748;2023-08-24T08:32:46;100427.59;;;24.70;100.00
34925;BME280;21130;51.728;8.748;2023-08-24T08:35:12;100421.78;;;24.96;100.00
34925;BME280;21130;51.728;8.748;2023-08-24T08:37:39;100424.41;;;25.31;100.00
34925;BME280;21130;51.728;8.748;2023-08-24T08:40:09;100426.81;;;25.41;100.00
34925;BME280;21130;51.728;8.748;2023-08-24T08:42:37;100431.31;;;25.42;100.00
34925;BME280;21130;51.728;8.748;2023-08-24T08:45:10;100428.81;;;25.61;100.00
34925;BME280;21130;51.728;8.748;2023-08-24T08:47:37;100419.22;;;25.87;100.00
34925;BME280;21130;51.728;8.748;2023-08-24T08:50:05;100417.38;;;26.03;100.00
34925;BME280;21130;51.728;8.748;2023-08-24T08:52:31;100412.44;;;26.49;100.00
34925;BME280;21130;51.728;8.748;2023-08-24T08:54:59;100417.31;;;26.98;100.00
34925;BME280;21130;51.728;8.748;2023-08-24T08:57:25;100405.03;;;27.34;100.00
34925;BME280;21130;51.728;8.748;2023-08-24T08:59:52;100404.03;;;27.83;95.05
34925;BME280;21130;51.728;8.748;2023-08-24T09:02:21;100397.75;;;28.21;91.58
34925;BME280;21130;51.728;8.748;2023-08-24T09:04:50;100394.50;;;28.23;92.68
34925;BME280;21130;51.728;8.748;2023-08-24T09:07:17;100396.00;;;28.17;94.62
34925;BME280;21130;51.728;8.748;2023-08-24T09:09:43;100389.13;;;28.50;91.32
34925;BME280;21130;51.728;8.748;2023-08-24T09:12:10;100377.88;;;29.08;77.63
34925;BME280;21130;51.728;8.748;2023-08-24T09:14:36;100376.59;;;29.44;75.82
34925;BME280;21130;51.728;8.748;2023-08-24T09:17:03;100368.84;;;29.84;85.94
34925;BME280;21130;51.728;8.748;2023-08-24T09:19:33;100367.06;;;30.68;72.13
34925;BME280;21130;51.728;8.748;2023-08-24T09:22:01;100368.81;;;30.76;68.02
34925;BME280;21130;51.728;8.748;2023-08-24T09:24:31;100365.41;;;30.40;71.24
34925;BME280;21130;51.728;8.748;2023-08-24T09:26:58;100367.84;;;31.18;60.01
34925;BME280;21130;51.728;8.748;2023-08-24T09:29:25;100353.06;;;31.46;63.49
34925;BME280;21130;51.728;8.748;2023-08-24T09:31:52;100341.50;;;31.76;57.99
34925;BME280;21130;51.728;8.748;2023-08-24T09:34:19;100339.66;;;32.39;51.59
34925;BME280;21130;51.728;8.748;2023-08-24T09:36:47;100326.75;;;32.63;49.84
34925;BME280;21130;51.728;8.748;2023-08-24T09:39:16;100324.44;;;32.35;51.70
34925;BME280;21130;51.728;8.748;2023-08-24T09:41:45;100319.50;;;32.32;49.96
34925;BME280;21130;51.728;8.748;2023-08-24T09:44:12;100321.16;;;31.92;52.32
34925;BME280;21130;51.728;8.748;2023-08-24T09:46:39;100313.91;;;31.98;53.08
34925;BME280;21130;51.728;8.748;2023-08-24T09:49:07;100313.63;;;32.14;51.13
34925;BME280;21130;51.728;8.748;2023-08-24T09:51:35;100299.34;;;32.25;53.15
34925;BME280;21130;51.728;8.748;2023-08-24T09:57:11;100294.72;;;32.65;51.62
34925;BME280;21130;51.728;8.748;2023-08-24T09:59:39;100291.94;;;32.20;53.04
34925;BME280;21130;51.728;8.748;2023-08-24T10:02:15;100288.31;;;31.86;49.50
34925;BME280;21130;51.728;8.748;2023-08-24T10:04:42;100276.84;;;31.45;53.45
34925;BME280;21130;51.728;8.748;2023-08-24T10:07:11;100284.22;;;31.46;49.73
34925;BME280;21130;51.728;8.748;2023-08-24T10:09:45;100276.00;;;31.11;53.10
34925;BME280;21130;51.728;8.748;2023-08-24T10:12:18;100280.81;;;31.71;48.64
34925;BME280;21130;51.728;8.748;2023-08-24T10:14:50;100270.53;;;32.11;46.34
34925;BME280;21130;51.728;8.748;2023-08-24T10:17:20;100269.00;;;32.27;47.69
34925;BME280;21130;51.728;8.748;2023-08-24T10:19:47;100272.88;;;31.23;49.03
34925;BME280;21130;51.728;8.748;2023-08-24T10:22:15;100262.09;;;31.47;48.90
34925;BME280;21130;51.728;8.748;2023-08-24T10:24:42;100264.63;;;31.18;48.28
34925;BME280;21130;51.728;8.748;2023-08-24T10:27:10;100256.50;;;31.24;50.12
34925;BME280;21130;51.728;8.748;2023-08-24T10:29:39;100261.81;;;30.91;51.22
34925;BME280;21130;51.728;8.748;2023-08-24T10:32:06;100260.41;;;31.08;51.71
34925;BME280;21130;51.728;8.748;2023-08-24T10:34:34;100270.75;;;31.50;54.08
34925;BME280;21130;51.728;8.748;2023-08-24T10:37:07;100264.41;;;32.16;49.76
34925;BME280;21130;51.728;8.748;2023-08-24T10:39:35;100262.06;;;32.28;49.49
34925;BME280;21130;51.728;8.748;2023-08-24T10:42:03;100262.88;;;32.29;50.36
34925;BME280;21130;51.728;8.748;2023-08-24T10:44:35;100259.25;;;32.39;47.57
34925;BME280;21130;51.728;8.748;2023-08-24T10:47:07;100257.72;;;32.53;46.12
34925;BME280;21130;51.728;8.748;2023-08-24T10:49:34;100248.56;;;32.40;45.73
34925;BME280;21130;51.728;8.748;2023-08-24T10:52:16;100254.75;;;32.42;45.94
34925;BME280;21130;51.728;8.748;2023-08-24T10:55:03;100264.22;;;32.46;45.14
34925;BME280;21130;51.728;8.748;2023-08-24T10:57:37;100264.66;;;32.48;44.85
34925;BME280;21130;51.728;8.748;2023-08-24T11:00:05;100261.59;;;32.23;46.52
34925;BME280;21130;51.728;8.748;2023-08-24T11:08:46;100255.13;;;32.37;43.61
34925;BME280;21130;51.728;8.748;2023-08-24T11:11:18;100252.94;;;32.19;46.04
34925;BME280;21130;51.728;8.748;2023-08-24T11:14:15;100243.19;;;32.31;44.34
34925;BME280;21130;51.728;8.748;2023-08-24T11:16:43;100236.63;;;31.82;45.34
34925;BME280;21130;51.728;8.748;2023-08-24T11:19:11;100235.72;;;30.70;49.16
34925;BME280;21130;51.728;8.748;2023-08-24T11:21:38;100235.44;;;30.78;50.04
34925;BME280;21130;51.728;8.748;2023-08-24T11:24:06;100230.25;;;31.59;54.64
34925;BME280;21130;51.728;8.748;2023-08-24T11:26:33;100215.66;;;31.75;49.68
34925;BME280;21130;51.728;8.748;2023-08-24T11:29:04;100208.03;;;31.11;48.61
34925;BME280;21130;51.728;8.748;2023-08-24T11:31:32;100203.28;;;31.30;48.30
34925;BME280;21130;51.728;8.748;2023-08-24T11:33:59;100196.88;;;31.40;47.54
34925;BME280;21130;51.728;8.748;2023-08-24T11:36:25;100192.69;;;31.30;48.05
34925;BME280;21130;51.728;8.748;2023-08-24T11:38:56;100188.66;;;31.01;48.37
34925;BME280;21130;51.728;8.748;2023-08-24T11:41:24;100185.50;;;30.79;47.87
34925;BME280;21130;51.728;8.748;2023-08-24T11:43:58;100185.16;;;30.51;49.89
34925;BME280;21130;51.728;8.748;2023-08-24T11:46:26;100173.38;;;30.29;50.15
34925;BME280;21130;51.728;8.748;2023-08-24T11:48:54;100164.53;;;30.38;50.22
34925;BME280;21130;51.728;8.748;2023-08-24T11:51:20;100164.19;;;30.77;51.21
34925;BME280;21130;51.728;8.748;2023-08-24T11:53:46;100157.47;;;30.62;49.41
34925;BME280;21130;51.728;8.748;2023-08-24T11:56:13;100154.53;;;30.55;50.68
34925;BME280;21130;51.728;8.748;2023-08-24T11:58:44;100156.09;;;30.22;51.54
34925;BME280;21130;51.728;8.748;2023-08-24T12:01:13;100156.50;;;30.51;50.74
34925;BME280;21130;51.728;8.748;2023-08-24T12:03:41;100157.50;;;30.96;53.65
34925;BME280;21130;51.728;8.748;2023-08-24T12:06:11;100148.81;;;31.30;51.41
34925;BME280;21130;51.728;8.748;2023-08-24T12:08:40;100158.47;;;31.11;49.88
34925;BME280;21130;51.728;8.748;2023-08-24T12:11:12;100156.59;;;30.88;52.07
34925;BME280;21130;51.728;8.748;2023-08-24T12:13:44;100152.97;;;30.95;52.09
34925;BME280;21130;51.728;8.748;2023-08-24T12:16:12;100141.25;;;30.73;54.03
34925;BME280;21130;51.728;8.748;2023-08-24T12:18:46;100141.94;;;30.63;53.78
34925;BME280;21130;51.728;8.748;2023-08-24T12:21:13;100141.16;;;30.66;54.68
34925;BME280;21130;51.728;8.748;2023-08-24T12:23:40;100136.78;;;30.79;61.94
34925;BME280;21130;51.728;8.748;2023-08-24T12:26:06;100135.50;;;30.73;59.35
34925;BME280;21130;51.728;8.748;2023-08-24T12:28:33;100131.19;;;30.53;60.30
34925;BME280;21130;51.728;8.748;2023-08-24T12:31:02;100130.53;;;30.36;65.64
34925;BME280;21130;51.728;8.748;2023-08-24T12:33:30;100121.66;;;29.88;70.31
34925;BME280;21130;51.728;8.748;2023-08-24T12:35:59;100124.63;;;29.69;74.69
34925;BME280;21130;51.728;8.748;2023-08-24T12:38:26;100132.56;;;29.56;76.09
34925;BME280;21130;51.728;8.748;2023-08-24T12:40:53;100125.72;;;29.64;82.87
34925;BME280;21130;51.728;8.748;2023-08-24T12:43:20;100121.59;;;29.62;79.79
34925;BME280;21130;51.728;8.748;2023-08-24T12:45:46;100106.78;;;29.53;85.89
34925;BME280;21130;51.728;8.748;2023-08-24T12:48:14;100112.63;;;29.60;87.26
34925;BME280;21130;51.728;8.748;2023-08-24T12:50:41;100100.16;;;29.48;86.62
34925;BME280;21130;51.728;8.748;2023-08-24T12:53:07;100097.63;;;29.43;90.32
34925;BME280;21130;51.728;8.748;2023-08-24T12:55:36;100115.69;;;29.47;91.48
34925;BME280;21130;51.728;8.748;2023-08-24T12:58:03;100098.56;;;29.51;87.49
34925;BME280;21130;51.728;8.748;2023-08-24T13:00:29;100104.44;;;29.62;87.35